createdAt,value
2023-03-31T00:00:30.610Z,9.33
2023-03-31T00:03:34.422Z,9.73
2023-03-31T00:06:38.690Z,6.85
2023-03-31T00:09:45.941Z,6.05
2023-03-31T00:12:48.346Z,6.10
2023-03-31T00:15:57.106Z,5.90
2023-03-31T00:19:02.039Z,6.22
2023-03-31T00:22:06.741Z,5.75
2023-03-31T00:25:12.136Z,6.12
2023-03-31T00:28:14.853Z,6.12
2023-03-31T00:31:18.787Z,5.55
2023-03-31T00:34:22.929Z,6.20
2023-03-31T00:37:25.274Z,6.32
2023-03-31T00:40:27.866Z,5.85
2023-03-31T00:43:39.392Z,5.45
2023-03-31T00:47:04.865Z,5.12
2023-03-31T00:50:18.792Z,4.53
2023-03-31T00:56:34.210Z,4.10
2023-03-31T00:59:41.488Z,4.30
2023-03-31T01:02:52.370Z,4.25
2023-03-31T01:06:00.201Z,3.90
2023-03-31T01:09:06.780Z,3.95
2023-03-31T01:12:11.191Z,4.45
2023-03-31T01:15:14.600Z,4.60
2023-03-31T01:18:21.311Z,4.12
2023-03-31T01:21:42.705Z,4.03
2023-03-31T01:25:09.537Z,4.30
2023-03-31T01:28:38.698Z,3.83
2023-03-31T01:32:03.258Z,4.00
2023-03-31T01:35:11.293Z,4.18
2023-03-31T01:38:35.871Z,4.05
2023-03-31T01:41:58.245Z,3.80
2023-03-31T01:45:19.341Z,4.05
2023-03-31T01:48:35.221Z,4.28
2023-03-31T01:52:04.937Z,4.15
2023-03-31T01:55:20.926Z,4.22
2023-03-31T01:58:27.792Z,4.15
2023-03-31T02:01:47.776Z,3.92
2023-03-31T02:05:01.085Z,3.72
2023-03-31T02:08:14.972Z,3.90
2023-03-31T02:11:18.271Z,3.97
2023-03-31T02:14:24.893Z,3.58
2023-03-31T02:17:32.865Z,3.72
2023-03-31T02:20:35.770Z,4.05
2023-03-31T02:23:38.832Z,3.60
2023-03-31T02:26:59.846Z,3.80
2023-03-31T02:30:04.008Z,4.37
2023-03-31T02:33:07.150Z,4.00
2023-03-31T02:36:11.530Z,3.80
2023-03-31T02:39:20.188Z,3.92
2023-03-31T02:42:23.069Z,4.00
2023-03-31T02:45:49.546Z,3.78
2023-03-31T02:48:56.045Z,3.50
2023-03-31T02:52:19.887Z,3.33
2023-03-31T02:55:38.473Z,3.47
2023-03-31T02:58:46.989Z,3.70
2023-03-31T03:02:04.422Z,3.53
2023-03-31T03:05:22.804Z,3.65
2023-03-31T03:08:37.926Z,4.07
2023-03-31T03:15:01.072Z,3.50
2023-03-31T03:18:06.546Z,4.17
2023-03-31T03:21:08.945Z,3.92
2023-03-31T03:24:11.779Z,3.58
2023-03-31T03:27:14.182Z,3.47
2023-03-31T03:30:17.040Z,3.58
2023-03-31T03:33:19.361Z,3.42
2023-03-31T03:36:23.261Z,3.25
2023-03-31T03:39:25.694Z,3.90
2023-03-31T03:42:28.279Z,2.58
2023-03-31T03:45:30.625Z,3.40
2023-03-31T03:48:33.381Z,2.90
2023-03-31T03:51:35.779Z,3.12
2023-03-31T03:54:38.397Z,2.87
2023-03-31T03:57:40.836Z,3.37
2023-03-31T04:00:45.206Z,3.22
2023-03-31T04:03:47.845Z,3.65
2023-03-31T04:06:50.302Z,3.05
2023-03-31T04:09:52.949Z,3.00
2023-03-31T04:12:55.540Z,3.95
2023-03-31T04:15:58.195Z,2.78
2023-03-31T04:19:03.835Z,3.30
2023-03-31T04:22:06.415Z,3.50
2023-03-31T04:25:17.834Z,3.37
2023-03-31T04:28:20.529Z,3.37
2023-03-31T04:31:25.618Z,3.83
2023-03-31T04:34:35.162Z,3.17
2023-03-31T04:37:38.872Z,3.55
2023-03-31T04:40:41.599Z,4.43
2023-03-31T04:43:44.243Z,4.05
2023-03-31T04:46:46.958Z,3.75
2023-03-31T04:49:49.438Z,3.75
2023-03-31T04:52:52.205Z,4.45
2023-03-31T04:55:54.608Z,4.05
2023-03-31T04:58:57.201Z,3.53
2023-03-31T05:01:59.602Z,3.75
2023-03-31T05:05:02.213Z,3.90
2023-03-31T05:08:04.825Z,3.72
2023-03-31T05:11:07.523Z,4.03
2023-03-31T05:14:09.952Z,3.90
2023-03-31T05:17:12.626Z,4.15
2023-03-31T05:20:14.917Z,4.45
2023-03-31T05:23:17.515Z,4.37
2023-03-31T05:26:20.055Z,4.45
2023-03-31T05:29:23.756Z,4.68
2023-03-31T05:32:27.481Z,4.65
2023-03-31T05:38:34.627Z,4.18
2023-03-31T05:41:37.311Z,4.10
2023-03-31T05:44:39.619Z,4.03
2023-03-31T05:47:42.308Z,4.50
2023-03-31T05:50:44.937Z,3.97
2023-03-31T05:53:47.566Z,4.70
2023-03-31T05:56:49.901Z,4.18
2023-03-31T05:59:52.510Z,4.70
2023-03-31T06:02:54.950Z,5.32
2023-03-31T06:05:57.872Z,4.20
2023-03-31T06:09:00.928Z,4.37
2023-03-31T06:12:03.853Z,6.50
2023-03-31T06:15:06.756Z,3.65
2023-03-31T06:18:10.835Z,4.87
2023-03-31T06:24:17.686Z,3.60
2023-03-31T06:27:19.961Z,4.00
2023-03-31T06:30:22.643Z,4.10
2023-03-31T06:33:24.980Z,3.55
2023-03-31T06:36:30.237Z,3.42
2023-03-31T06:39:32.955Z,3.53
2023-03-31T06:42:35.738Z,4.13
2023-03-31T06:45:38.153Z,4.05
2023-03-31T06:48:41.433Z,3.75
2023-03-31T06:51:43.862Z,3.60
2023-03-31T06:54:47.025Z,3.40
2023-03-31T06:57:49.426Z,3.05
2023-03-31T07:00:52.963Z,4.03
2023-03-31T07:03:55.400Z,3.40
2023-03-31T07:07:01.859Z,5.30
2023-03-31T07:10:04.730Z,6.10
2023-03-31T07:13:07.507Z,5.30
2023-03-31T07:16:10.992Z,7.15
2023-03-31T07:19:15.534Z,6.55
2023-03-31T07:22:18.075Z,7.47
2023-03-31T07:25:20.787Z,6.47
2023-03-31T07:28:23.208Z,6.00
2023-03-31T07:31:26.443Z,5.82
2023-03-31T07:34:28.926Z,5.53
2023-03-31T07:37:36.629Z,5.27
2023-03-31T07:40:39.940Z,5.90
2023-03-31T07:43:42.750Z,5.15
2023-03-31T07:46:45.106Z,4.57
2023-03-31T07:49:48.431Z,4.62
2023-03-31T07:52:51.569Z,4.00
2023-03-31T07:55:54.189Z,3.75
2023-03-31T07:58:57.929Z,4.00
2023-03-31T08:02:03.513Z,4.07
2023-03-31T08:05:07.424Z,5.12
2023-03-31T08:08:09.829Z,4.95
2023-03-31T08:11:12.509Z,5.50
2023-03-31T08:14:15.174Z,5.07
2023-03-31T08:17:18.049Z,5.37
2023-03-31T08:20:20.545Z,4.87
2023-03-31T08:23:23.241Z,4.70
2023-03-31T08:26:26.241Z,4.37
2023-03-31T08:29:34.308Z,4.57
2023-03-31T08:32:37.438Z,4.20
2023-03-31T08:35:41.174Z,4.43
2023-03-31T08:38:48.180Z,4.62
2023-03-31T08:42:07.592Z,3.83
2023-03-31T08:45:25.464Z,3.83
2023-03-31T08:48:36.843Z,3.87
2023-03-31T08:51:56.724Z,3.95
2023-03-31T08:55:04.731Z,3.70
2023-03-31T08:58:15.798Z,4.22
2023-03-31T09:01:47.712Z,3.40
2023-03-31T09:05:00.755Z,3.72
2023-03-31T09:08:35.817Z,3.67
2023-03-31T09:11:51.238Z,4.60
2023-03-31T09:15:34.979Z,3.42
2023-03-31T09:18:46.629Z,3.70
2023-03-31T09:21:53.388Z,3.45
2023-03-31T09:25:10.784Z,3.58
2023-03-31T09:28:29.150Z,3.67
2023-03-31T09:31:32.281Z,3.55
2023-03-31T09:34:36.494Z,3.53
2023-03-31T09:37:38.901Z,3.45
2023-03-31T09:40:42.838Z,3.63
2023-03-31T09:43:46.428Z,3.60
2023-03-31T09:46:50.407Z,3.40
2023-03-31T09:49:53.852Z,3.28
2023-03-31T09:52:59.908Z,3.55
2023-03-31T09:56:05.377Z,2.95
2023-03-31T09:59:15.806Z,3.25
2023-03-31T10:02:36.163Z,3.37
2023-03-31T10:05:48.553Z,2.75
2023-03-31T10:08:53.922Z,2.60
2023-03-31T10:12:17.902Z,2.30
2023-03-31T10:15:26.050Z,2.33
2023-03-31T10:18:44.680Z,2.37
2023-03-31T10:21:55.362Z,2.30
2023-03-31T10:25:17.446Z,2.58
2023-03-31T10:28:21.074Z,2.37
2023-03-31T10:31:33.999Z,2.70
2023-03-31T10:34:42.386Z,2.47
2023-03-31T10:37:48.218Z,2.72
2023-03-31T10:40:53.402Z,2.60
2023-03-31T10:43:58.198Z,2.35
2023-03-31T10:47:13.609Z,2.15
2023-03-31T10:50:17.081Z,1.90
2023-03-31T10:53:20.062Z,2.53
2023-03-31T10:56:35.004Z,2.53
2023-03-31T10:59:46.904Z,2.87
2023-03-31T11:03:12.706Z,2.70
2023-03-31T11:06:27.459Z,3.15
2023-03-31T11:10:01.648Z,3.10
2023-03-31T11:13:20.140Z,2.58
2023-03-31T11:16:40.771Z,2.37
2023-03-31T11:20:06.955Z,2.80
2023-03-31T11:23:38.600Z,2.85
2023-03-31T11:27:08.952Z,2.70
2023-03-31T11:34:10.141Z,2.40
2023-03-31T11:38:03.303Z,2.42
2023-03-31T11:41:11.983Z,2.55
2023-03-31T11:44:18.895Z,2.42
2023-03-31T11:47:27.676Z,2.28
2023-03-31T11:50:38.527Z,2.50
2023-03-31T11:53:43.553Z,2.60
2023-03-31T11:56:46.757Z,2.30
2023-03-31T11:59:56.672Z,2.10
2023-03-31T12:03:02.113Z,2.72
2023-03-31T12:06:19.518Z,2.30
2023-03-31T12:09:30.559Z,2.17
2023-03-31T12:12:42.169Z,2.50
2023-03-31T12:15:53.007Z,2.50
2023-03-31T12:19:09.049Z,2.28
2023-03-31T12:22:17.499Z,2.30
2023-03-31T12:25:26.689Z,2.60
2023-03-31T12:28:33.758Z,2.70
2023-03-31T12:31:40.421Z,2.35
2023-03-31T12:34:54.420Z,2.05
2023-03-31T12:38:16.881Z,2.12
2023-03-31T12:41:44.726Z,2.22
2023-03-31T12:44:50.342Z,2.53
2023-03-31T12:48:19.410Z,2.22
2023-03-31T12:51:56.537Z,2.67
2023-03-31T12:55:38.337Z,3.03
2023-03-31T12:58:43.725Z,2.65
2023-03-31T13:02:09.334Z,2.70
2023-03-31T13:05:36.899Z,2.90
2023-03-31T13:08:56.160Z,3.25
2023-03-31T13:11:59.136Z,3.47
2023-03-31T13:15:04.954Z,2.55
2023-03-31T13:18:08.371Z,2.90
2023-03-31T13:21:12.352Z,3.00
2023-03-31T13:24:15.654Z,3.35
2023-03-31T13:27:33.638Z,2.67
2023-03-31T13:30:36.658Z,2.72
2023-03-31T13:33:47.010Z,3.05
2023-03-31T13:37:04.436Z,2.42
2023-03-31T13:40:37.905Z,2.12
2023-03-31T13:43:48.710Z,2.35
2023-03-31T13:47:16.703Z,2.28
2023-03-31T13:50:38.109Z,2.10
2023-03-31T13:53:57.749Z,2.15
2023-03-31T13:57:33.451Z,2.28
2023-03-31T14:00:48.163Z,1.90
2023-03-31T14:03:56.932Z,1.65
2023-03-31T14:07:09.579Z,1.90
2023-03-31T14:10:27.697Z,1.92
2023-03-31T14:13:30.041Z,2.08
2023-03-31T14:16:37.566Z,2.00
2023-03-31T14:20:10.461Z,2.30
2023-03-31T14:23:25.057Z,1.90
2023-03-31T14:26:48.902Z,1.90
2023-03-31T14:30:27.328Z,2.17
2023-03-31T14:33:37.916Z,1.85
2023-03-31T14:36:46.831Z,2.03
2023-03-31T14:39:53.830Z,2.12
2023-03-31T14:42:56.563Z,1.92
2023-03-31T14:46:10.043Z,2.00
2023-03-31T14:49:54.183Z,2.22
2023-03-31T14:52:56.804Z,2.10
2023-03-31T14:56:11.810Z,2.03
2023-03-31T14:59:19.801Z,2.30
2023-03-31T15:02:34.397Z,2.28
2023-03-31T15:05:38.506Z,2.45
2023-03-31T15:08:42.154Z,2.10
2023-03-31T15:11:44.509Z,1.95
2023-03-31T15:14:51.104Z,2.42
2023-03-31T15:17:54.829Z,2.30
2023-03-31T15:20:57.624Z,3.20
2023-03-31T15:23:59.942Z,2.22
2023-03-31T15:27:23.454Z,2.15
2023-03-31T15:30:32.638Z,2.55
2023-03-31T15:33:41.355Z,2.53
2023-03-31T15:36:44.354Z,2.50
2023-03-31T15:39:49.189Z,2.73
2023-03-31T15:43:25.593Z,2.20
2023-03-31T15:46:50.466Z,2.20
2023-03-31T15:49:54.645Z,2.70
2023-03-31T15:53:03.897Z,2.03
2023-03-31T15:56:07.600Z,1.70
2023-03-31T15:59:54.580Z,2.00
2023-03-31T16:03:04.459Z,1.92
2023-03-31T16:06:41.663Z,1.77
2023-03-31T16:09:48.182Z,1.70
2023-03-31T16:13:06.315Z,2.10
2023-03-31T16:16:12.515Z,1.62
2023-03-31T16:19:16.325Z,1.67
2023-03-31T16:22:31.067Z,1.90
2023-03-31T16:25:40.729Z,1.87
2023-03-31T16:28:53.974Z,1.98
2023-03-31T16:32:18.362Z,2.33
2023-03-31T16:35:20.757Z,2.10
2023-03-31T16:38:27.968Z,2.00
2023-03-31T16:41:30.854Z,2.08
2023-03-31T16:44:33.455Z,2.95
2023-03-31T16:47:36.634Z,2.03
2023-03-31T16:50:40.762Z,2.10
2023-03-31T16:53:43.981Z,1.90
2023-03-31T16:56:47.940Z,2.12
2023-03-31T16:59:50.379Z,1.92
2023-03-31T17:02:53.262Z,1.77
2023-03-31T17:05:59.209Z,1.80
2023-03-31T17:09:02.223Z,1.73
2023-03-31T17:12:04.797Z,2.62
2023-03-31T17:15:08.376Z,3.33
2023-03-31T17:18:11.058Z,2.47
2023-03-31T17:21:15.624Z,1.48
2023-03-31T17:24:17.958Z,2.45
2023-03-31T17:27:20.635Z,2.10
2023-03-31T17:30:23.737Z,2.65
2023-03-31T17:33:27.863Z,2.60
2023-03-31T17:36:30.345Z,2.30
2023-03-31T17:39:33.140Z,2.30
2023-03-31T17:42:35.485Z,2.25
2023-03-31T17:45:38.309Z,2.08
2023-03-31T17:48:41.384Z,2.45
2023-03-31T17:51:44.259Z,2.15
2023-03-31T17:54:48.599Z,2.30
2023-03-31T17:57:52.157Z,2.47
2023-03-31T18:00:54.693Z,2.33
2023-03-31T18:03:58.368Z,2.30
2023-03-31T18:07:01.417Z,2.25
2023-03-31T18:10:07.729Z,2.65
2023-03-31T18:13:11.488Z,2.58
2023-03-31T18:16:14.277Z,2.35
2023-03-31T18:19:17.314Z,2.20
2023-03-31T18:22:19.961Z,2.58
2023-03-31T18:25:22.335Z,2.60
2023-03-31T18:28:24.915Z,3.30
2023-03-31T18:31:27.402Z,2.97
2023-03-31T18:34:32.611Z,2.95
2023-03-31T18:37:35.112Z,2.53
2023-03-31T18:40:37.808Z,2.70
2023-03-31T18:43:40.638Z,3.08
2023-03-31T18:46:44.377Z,2.70
2023-03-31T18:49:48.537Z,2.53
2023-03-31T18:52:52.433Z,3.47
2023-03-31T18:55:57.363Z,4.25
2023-03-31T18:59:00.129Z,4.47
2023-03-31T19:02:02.469Z,3.33
2023-03-31T19:05:05.745Z,3.70
2023-03-31T19:08:08.324Z,3.22
2023-03-31T19:11:16.126Z,3.17
2023-03-31T19:14:18.438Z,3.10
2023-03-31T19:17:21.419Z,2.80
2023-03-31T19:20:23.921Z,3.37
2023-03-31T19:23:26.613Z,2.92
2023-03-31T19:26:29.724Z,2.72
2023-03-31T19:29:32.776Z,2.80
2023-03-31T19:32:37.550Z,2.42
2023-03-31T19:35:45.565Z,2.35
2023-03-31T19:38:48.047Z,1.80
2023-03-31T19:41:50.717Z,1.40
2023-03-31T19:44:53.037Z,1.40
2023-03-31T19:47:56.099Z,1.20
2023-03-31T19:51:00.674Z,1.05
2023-03-31T19:54:04.932Z,1.20
2023-03-31T20:00:12.532Z,4.68
2023-03-31T20:03:15.825Z,1.50
2023-03-31T20:06:23.861Z,1.00
2023-03-31T20:09:26.730Z,0.90
2023-03-31T20:12:29.229Z,1.00
2023-03-31T20:15:32.954Z,0.70
2023-03-31T20:18:37.272Z,0.80
2023-03-31T20:21:40.751Z,0.95
2023-03-31T20:24:43.238Z,0.75
2023-03-31T20:27:46.183Z,0.80
2023-03-31T20:30:49.217Z,0.70
2023-03-31T20:33:53.002Z,0.90
2023-03-31T20:36:56.453Z,0.80
2023-03-31T20:39:59.265Z,0.80
2023-03-31T20:43:01.609Z,1.08
2023-03-31T20:46:06.640Z,1.50
2023-03-31T20:49:09.464Z,0.70
2023-03-31T20:52:12.079Z,0.83
2023-03-31T20:55:15.211Z,0.70
2023-03-31T20:58:18.466Z,0.88
2023-03-31T21:01:22.003Z,0.60
2023-03-31T21:07:26.888Z,0.80
2023-03-31T21:10:29.474Z,0.85
2023-03-31T21:13:32.196Z,0.80
2023-03-31T21:16:35.052Z,1.17
2023-03-31T21:19:37.425Z,1.45
2023-03-31T21:22:40.110Z,1.05
2023-03-31T21:25:45.526Z,0.98
2023-03-31T21:28:53.853Z,1.27
2023-03-31T21:31:56.322Z,1.10
2023-03-31T21:34:58.989Z,1.00
2023-03-31T21:38:02.943Z,1.00
2023-03-31T21:41:11.368Z,1.45
2023-03-31T21:44:13.774Z,1.20
2023-03-31T21:47:16.792Z,1.60
2023-03-31T21:50:19.123Z,1.17
2023-03-31T21:53:23.005Z,1.20
2023-03-31T21:56:27.765Z,1.42
2023-03-31T21:59:31.706Z,1.17
2023-03-31T22:02:34.022Z,1.17
2023-03-31T22:05:37.013Z,1.15
2023-03-31T22:08:39.956Z,1.27
2023-03-31T22:11:43.319Z,1.15
2023-03-31T22:14:45.695Z,1.30
2023-03-31T22:17:48.373Z,1.40
2023-03-31T22:20:51.522Z,1.00
2023-03-31T22:23:57.363Z,1.02
2023-03-31T22:26:59.644Z,1.00
2023-03-31T22:30:02.806Z,0.80
2023-03-31T22:33:05.667Z,1.12
2023-03-31T22:36:08.819Z,0.95
2023-03-31T22:39:11.284Z,0.80
2023-03-31T22:42:13.842Z,0.90
2023-03-31T22:45:16.441Z,0.80
2023-03-31T22:48:19.406Z,0.85
2023-03-31T22:51:21.701Z,0.73
2023-03-31T22:54:24.471Z,0.98
2023-03-31T22:57:27.677Z,0.90
2023-03-31T23:00:30.552Z,0.80
2023-03-31T23:03:33.152Z,0.90
2023-03-31T23:06:36.208Z,0.90
2023-03-31T23:09:38.756Z,1.20
2023-03-31T23:12:41.658Z,0.88
2023-03-31T23:15:44.059Z,0.75
2023-03-31T23:18:48.455Z,0.68
2023-03-31T23:21:51.442Z,1.00
2023-03-31T23:24:54.033Z,1.08
2023-03-31T23:27:56.341Z,1.30
2023-03-31T23:30:59.235Z,1.02
2023-03-31T23:34:01.756Z,0.90
2023-03-31T23:37:04.358Z,1.10
2023-03-31T23:40:07.534Z,1.30
2023-03-31T23:43:10.505Z,0.98
2023-03-31T23:46:13.589Z,1.23
2023-03-31T23:49:16.300Z,1.10
2023-03-31T23:52:18.640Z,1.15
2023-03-31T23:55:21.284Z,1.05
2023-03-31T23:58:24.896Z,1.40
